createdAt,value
2018-05-29T00:00:08.627Z,3.10
2018-05-29T00:02:36.168Z,2.60
2018-05-29T00:05:03.729Z,3.10
2018-05-29T00:07:31.283Z,3.00
2018-05-29T00:09:58.843Z,3.43
2018-05-29T00:12:26.378Z,2.73
2018-05-29T00:14:54.092Z,2.83
2018-05-29T00:17:21.628Z,2.57
2018-05-29T00:19:49.168Z,3.47
2018-05-29T00:22:16.733Z,3.03
2018-05-29T00:24:44.288Z,3.10
2018-05-29T00:27:11.837Z,3.47
2018-05-29T00:29:39.561Z,3.17
2018-05-29T00:32:07.122Z,2.80
2018-05-29T00:34:34.655Z,3.40
2018-05-29T00:37:02.543Z,3.17
2018-05-29T00:39:30.084Z,3.50
2018-05-29T00:41:57.640Z,3.60
2018-05-29T00:44:25.195Z,3.57
2018-05-29T00:46:52.753Z,3.20
2018-05-29T00:49:20.304Z,3.10
2018-05-29T00:51:47.995Z,3.67
2018-05-29T00:54:15.535Z,3.43
2018-05-29T00:56:43.089Z,3.43
2018-05-29T00:59:10.812Z,3.40
2018-05-29T01:01:38.366Z,3.47
2018-05-29T01:04:05.901Z,3.03
2018-05-29T01:06:33.470Z,3.20
2018-05-29T01:09:01.008Z,3.10
2018-05-29T01:11:28.543Z,3.37
2018-05-29T01:13:56.071Z,2.40
2018-05-29T01:16:23.594Z,2.60
2018-05-29T01:18:51.487Z,2.47
2018-05-29T01:21:19.028Z,2.70
2018-05-29T01:23:46.588Z,2.17
2018-05-29T01:26:14.165Z,2.20
2018-05-29T01:28:41.700Z,2.03
2018-05-29T01:31:09.243Z,2.10
2018-05-29T01:33:36.954Z,2.27
2018-05-29T01:36:04.505Z,2.03
2018-05-29T01:38:32.032Z,1.87
2018-05-29T01:40:59.602Z,2.57
2018-05-29T01:43:27.162Z,1.97
2018-05-29T01:45:54.702Z,2.10
2018-05-29T01:48:22.411Z,2.03
2018-05-29T01:50:49.954Z,2.03
2018-05-29T01:53:17.485Z,2.40
2018-05-29T01:55:45.065Z,2.33
2018-05-29T01:58:12.626Z,1.90
2018-05-29T02:00:40.172Z,2.40
2018-05-29T02:03:07.742Z,2.00
2018-05-29T02:05:35.298Z,2.47
2018-05-29T02:08:02.835Z,2.30
2018-05-29T02:10:30.548Z,2.57
2018-05-29T02:12:58.093Z,3.90
2018-05-29T02:15:25.631Z,4.97
2018-05-29T02:17:53.187Z,5.33
2018-05-29T02:20:20.745Z,5.17
2018-05-29T02:22:48.460Z,5.00
2018-05-29T02:25:16.074Z,5.60
2018-05-29T02:27:43.616Z,5.67
2018-05-29T02:30:11.157Z,6.00
2018-05-29T02:32:38.736Z,5.10
2018-05-29T02:35:06.280Z,5.87
2018-05-29T02:37:33.815Z,5.10
2018-05-29T02:40:01.726Z,5.07
2018-05-29T02:42:29.302Z,5.20
2018-05-29T02:44:56.846Z,5.07
2018-05-29T02:47:24.415Z,5.30
2018-05-29T02:49:51.965Z,5.10
2018-05-29T02:52:19.511Z,5.10
2018-05-29T02:54:47.081Z,5.80
2018-05-29T02:57:14.644Z,5.10
2018-05-29T02:59:42.183Z,5.10
2018-05-29T03:02:09.761Z,5.60
2018-05-29T03:04:41.267Z,5.20
2018-05-29T03:07:08.827Z,4.30
2018-05-29T03:09:36.543Z,4.33
2018-05-29T03:12:04.103Z,4.27
2018-05-29T03:14:31.662Z,4.37
2018-05-29T03:16:59.239Z,3.83
2018-05-29T03:19:26.780Z,4.17
2018-05-29T03:21:55.231Z,3.83
2018-05-29T03:24:22.815Z,4.27
2018-05-29T03:26:50.357Z,3.93
2018-05-29T03:29:17.905Z,3.97
2018-05-29T03:31:45.657Z,3.13
2018-05-29T03:34:13.193Z,3.17
2018-05-29T03:36:40.732Z,3.63
2018-05-29T03:39:08.484Z,3.80
2018-05-29T03:41:36.059Z,3.60
2018-05-29T03:44:03.617Z,3.00
2018-05-29T03:46:31.194Z,3.00
2018-05-29T03:48:58.792Z,3.80
2018-05-29T03:51:26.376Z,3.37
2018-05-29T03:53:53.921Z,3.43
2018-05-29T03:56:21.473Z,2.93
2018-05-29T03:58:49.025Z,3.27
2018-05-29T04:01:16.593Z,3.40
2018-05-29T04:03:44.133Z,3.17
2018-05-29T04:06:11.680Z,3.20
2018-05-29T04:08:39.348Z,3.58
2018-05-29T04:11:06.913Z,2.53
2018-05-29T04:13:34.460Z,3.42
2018-05-29T04:16:02.373Z,3.67
2018-05-29T04:18:29.915Z,4.10
2018-05-29T04:20:57.470Z,4.20
2018-05-29T04:23:25.200Z,3.72
2018-05-29T04:25:52.764Z,4.40
2018-05-29T04:28:20.316Z,4.32
2018-05-29T04:30:47.889Z,4.47
2018-05-29T04:33:15.425Z,4.18
2018-05-29T04:35:42.984Z,4.30
2018-05-29T04:38:10.572Z,4.37
2018-05-29T04:40:38.116Z,4.87
2018-05-29T04:43:05.668Z,4.10
2018-05-29T04:45:33.384Z,3.80
2018-05-29T04:48:00.943Z,4.85
2018-05-29T04:50:28.497Z,2.55
2018-05-29T04:52:56.065Z,2.17
2018-05-29T04:55:23.641Z,3.25
2018-05-29T04:57:51.177Z,4.65
2018-05-29T05:00:18.785Z,4.68
2018-05-29T05:02:46.346Z,2.78
2018-05-29T05:05:13.913Z,2.92
2018-05-29T05:07:41.641Z,2.50
2018-05-29T05:10:09.171Z,2.37
2018-05-29T05:12:36.711Z,4.12
2018-05-29T05:15:04.508Z,2.70
2018-05-29T05:17:32.059Z,3.40
2018-05-29T05:19:59.597Z,2.70
2018-05-29T05:22:27.565Z,3.07
2018-05-29T05:24:55.109Z,2.70
2018-05-29T05:27:22.660Z,2.53
2018-05-29T05:29:50.248Z,3.20
2018-05-29T05:32:17.820Z,3.70
2018-05-29T05:34:45.369Z,2.83
2018-05-29T05:37:12.944Z,2.70
2018-05-29T05:39:40.493Z,3.17
2018-05-29T05:42:08.038Z,2.30
2018-05-29T05:44:35.757Z,2.43
2018-05-29T05:47:03.304Z,3.33
2018-05-29T05:49:30.841Z,3.00
2018-05-29T05:51:58.518Z,2.30
2018-05-29T05:54:26.061Z,2.77
2018-05-29T05:56:53.617Z,2.20
2018-05-29T05:59:21.351Z,2.43
2018-05-29T06:01:48.926Z,2.43
2018-05-29T06:04:16.469Z,2.77
2018-05-29T06:06:44.062Z,2.43
2018-05-29T06:09:11.615Z,2.20
2018-05-29T06:11:39.151Z,2.30
2018-05-29T06:14:06.704Z,3.20
2018-05-29T06:16:34.246Z,2.20
2018-05-29T06:19:01.850Z,2.47
2018-05-29T06:21:29.395Z,2.23
2018-05-29T06:23:56.972Z,2.70
2018-05-29T06:26:24.817Z,2.60
2018-05-29T06:28:52.383Z,2.67
2018-05-29T06:31:19.939Z,2.43
2018-05-29T06:33:47.679Z,2.47
2018-05-29T06:36:15.235Z,2.47
2018-05-29T06:38:42.825Z,2.40
2018-05-29T06:41:10.509Z,2.50
2018-05-29T06:43:38.069Z,2.63
2018-05-29T06:46:05.652Z,2.80
2018-05-29T06:48:33.325Z,2.17
2018-05-29T06:51:00.875Z,2.50
2018-05-29T06:53:28.416Z,2.20
2018-05-29T06:55:56.166Z,2.57
2018-05-29T06:58:23.734Z,2.20
2018-05-29T07:00:51.289Z,2.90
2018-05-29T07:03:18.878Z,2.50
2018-05-29T07:05:46.425Z,2.20
2018-05-29T07:08:14.017Z,2.27
2018-05-29T07:10:41.939Z,2.60
2018-05-29T07:13:09.487Z,2.47
2018-05-29T07:15:37.041Z,2.20
2018-05-29T07:18:04.629Z,2.70
2018-05-29T07:20:32.184Z,2.47
2018-05-29T07:22:59.730Z,2.60
2018-05-29T07:25:27.313Z,2.87
2018-05-29T07:27:54.866Z,2.60
2018-05-29T07:30:22.469Z,3.13
2018-05-29T07:32:50.065Z,2.90
2018-05-29T07:35:17.614Z,2.90
2018-05-29T07:37:45.164Z,3.67
2018-05-29T07:40:12.847Z,2.90
2018-05-29T07:42:40.421Z,3.30
2018-05-29T07:45:08.011Z,3.53
2018-05-29T07:47:35.731Z,3.73
2018-05-29T07:50:03.322Z,3.87
2018-05-29T07:52:34.301Z,4.03
2018-05-29T07:55:02.237Z,4.10
2018-05-29T07:57:29.787Z,3.40
2018-05-29T07:59:57.347Z,3.87
2018-05-29T08:02:24.926Z,4.40
2018-05-29T08:04:52.493Z,6.13
2018-05-29T08:07:20.070Z,5.23
2018-05-29T08:09:47.645Z,5.10
2018-05-29T08:12:15.198Z,5.60
2018-05-29T08:14:42.774Z,4.27
2018-05-29T08:17:10.434Z,4.13
2018-05-29T08:19:37.978Z,5.73
2018-05-29T08:22:05.590Z,4.63
2018-05-29T08:24:33.282Z,5.00
2018-05-29T08:27:00.830Z,5.90
2018-05-29T08:29:28.388Z,5.00
2018-05-29T08:31:56.117Z,3.93
2018-05-29T08:34:23.661Z,5.17
2018-05-29T08:36:51.241Z,4.57
2018-05-29T08:39:18.986Z,4.40
2018-05-29T08:41:46.532Z,3.53
2018-05-29T08:44:14.081Z,3.83
2018-05-29T08:46:41.697Z,4.63
2018-05-29T08:49:09.245Z,4.37
2018-05-29T08:51:36.807Z,4.60
2018-05-29T08:54:04.396Z,3.90
2018-05-29T08:56:31.952Z,4.13
2018-05-29T08:58:59.508Z,3.47
2018-05-29T09:01:27.204Z,3.67
2018-05-29T09:03:54.774Z,3.60
2018-05-29T09:06:22.349Z,3.50
2018-05-29T09:08:49.939Z,3.37
2018-05-29T09:11:17.493Z,3.43
2018-05-29T09:13:45.039Z,2.90
2018-05-29T09:16:12.630Z,3.20
2018-05-29T09:18:40.177Z,3.10
2018-05-29T09:21:07.738Z,3.50
2018-05-29T09:23:35.317Z,2.30
2018-05-29T09:26:02.883Z,2.47
2018-05-29T09:28:30.445Z,2.50
2018-05-29T09:30:58.176Z,3.00
2018-05-29T09:33:25.735Z,2.63
2018-05-29T09:35:53.296Z,5.60
2018-05-29T09:38:20.894Z,3.40
2018-05-29T09:40:48.435Z,2.90
2018-05-29T09:43:16.023Z,2.20
2018-05-29T09:45:43.632Z,2.30
2018-05-29T09:48:11.179Z,3.43
2018-05-29T09:50:38.757Z,2.40
2018-05-29T09:53:06.437Z,2.83
2018-05-29T09:55:33.987Z,2.50
2018-05-29T09:58:01.541Z,3.10
2018-05-29T10:00:35.069Z,3.00
2018-05-29T10:03:02.653Z,2.40
2018-05-29T10:05:30.206Z,2.60
2018-05-29T10:07:57.974Z,2.97
2018-05-29T10:10:25.628Z,2.63
2018-05-29T10:12:53.191Z,2.23
2018-05-29T10:15:20.740Z,2.90
2018-05-29T10:17:48.317Z,2.40
2018-05-29T10:20:16.053Z,2.10
2018-05-29T10:22:43.613Z,2.43
2018-05-29T10:25:11.161Z,2.13
2018-05-29T10:27:39.102Z,2.73
2018-05-29T10:30:06.653Z,2.30
2018-05-29T10:32:34.205Z,2.47
2018-05-29T10:35:01.930Z,3.47
2018-05-29T10:37:29.490Z,2.63
2018-05-29T10:39:57.053Z,2.30
2018-05-29T10:42:24.792Z,2.47
2018-05-29T10:44:52.332Z,2.67
2018-05-29T10:47:19.887Z,2.87
2018-05-29T10:49:47.479Z,2.40
2018-05-29T10:52:15.030Z,2.90
2018-05-29T10:54:42.615Z,2.30
2018-05-29T10:57:10.289Z,2.50
2018-05-29T10:59:37.823Z,2.43
2018-05-29T11:02:05.382Z,2.33
2018-05-29T11:04:32.959Z,2.70
2018-05-29T11:07:00.501Z,2.50
2018-05-29T11:09:28.051Z,3.90
2018-05-29T11:11:55.622Z,2.50
2018-05-29T11:14:23.179Z,2.70
2018-05-29T11:16:50.727Z,2.80
2018-05-29T11:19:18.310Z,2.30
2018-05-29T11:21:45.861Z,2.67
2018-05-29T11:24:13.402Z,2.83
2018-05-29T11:26:41.006Z,2.70
2018-05-29T11:29:08.539Z,2.70
2018-05-29T11:31:36.087Z,2.73
2018-05-29T11:34:03.817Z,2.70
2018-05-29T11:36:31.349Z,2.73
2018-05-29T11:38:58.905Z,2.83
2018-05-29T11:41:26.488Z,2.80
2018-05-29T11:43:54.053Z,3.23
2018-05-29T11:46:21.588Z,2.80
2018-05-29T11:48:49.272Z,2.77
2018-05-29T11:51:16.829Z,3.80
2018-05-29T11:53:44.404Z,3.23
2018-05-29T11:56:12.129Z,3.43
2018-05-29T11:58:39.679Z,2.57
2018-05-29T12:01:07.260Z,3.07
2018-05-29T12:03:34.832Z,2.30
2018-05-29T12:06:02.391Z,4.90
2018-05-29T12:08:29.996Z,2.77
2018-05-29T12:10:57.589Z,2.77
2018-05-29T12:13:25.129Z,2.70
2018-05-29T12:15:52.671Z,3.23
2018-05-29T12:18:20.357Z,2.67
2018-05-29T12:20:47.903Z,2.40
2018-05-29T12:23:15.437Z,2.70
2018-05-29T12:25:43.028Z,2.73
2018-05-29T12:28:10.605Z,2.50
2018-05-29T12:30:38.178Z,2.67
2018-05-29T12:33:05.775Z,9.87
2018-05-29T12:35:33.353Z,2.77
2018-05-29T12:38:00.913Z,2.97
2018-05-29T12:40:28.623Z,4.00
2018-05-29T12:42:56.168Z,2.80
2018-05-29T12:45:23.713Z,2.70
2018-05-29T12:47:51.329Z,2.80
2018-05-29T12:50:18.892Z,2.77
2018-05-29T12:52:46.425Z,2.90
2018-05-29T12:55:14.014Z,3.40
2018-05-29T12:57:41.568Z,2.80
2018-05-29T13:00:09.140Z,2.70
2018-05-29T13:02:36.760Z,2.97
2018-05-29T13:05:04.345Z,3.27
2018-05-29T13:07:31.897Z,3.23
2018-05-29T13:09:59.484Z,3.10
2018-05-29T13:12:27.033Z,2.87
2018-05-29T13:14:55.228Z,3.00
2018-05-29T13:17:22.903Z,3.57
2018-05-29T13:19:50.457Z,2.73
2018-05-29T13:22:18.004Z,3.07
2018-05-29T13:24:45.698Z,2.90
2018-05-29T13:27:13.256Z,6.17
2018-05-29T13:29:40.824Z,3.83
2018-05-29T13:32:08.550Z,3.00
2018-05-29T13:34:36.098Z,3.47
2018-05-29T13:37:03.657Z,2.63
2018-05-29T13:39:31.630Z,3.17
2018-05-29T13:41:59.169Z,3.13
2018-05-29T13:44:26.715Z,2.93
2018-05-29T13:46:54.701Z,3.00
2018-05-29T13:49:22.248Z,3.60
2018-05-29T13:51:49.786Z,2.87
2018-05-29T13:54:17.383Z,3.00
2018-05-29T13:56:44.931Z,3.27
2018-05-29T13:59:12.498Z,2.93
2018-05-29T14:01:40.439Z,3.13
2018-05-29T14:04:08.031Z,5.03
2018-05-29T14:06:35.568Z,3.33
2018-05-29T14:09:03.397Z,2.80
2018-05-29T14:11:30.924Z,2.60
2018-05-29T14:13:58.482Z,3.20
2018-05-29T14:16:26.211Z,2.87
2018-05-29T14:18:53.764Z,3.20
2018-05-29T14:21:21.333Z,3.63
2018-05-29T14:23:48.904Z,3.23
2018-05-29T14:26:16.455Z,2.73
2018-05-29T14:28:43.996Z,2.67
2018-05-29T14:31:11.587Z,3.70
2018-05-29T14:33:39.138Z,3.20
2018-05-29T14:36:06.696Z,3.40
2018-05-29T14:38:34.296Z,3.23
2018-05-29T14:41:01.848Z,3.10
2018-05-29T14:43:29.387Z,3.13
2018-05-29T14:45:57.101Z,3.20
2018-05-29T14:48:24.643Z,3.80
2018-05-29T14:50:52.196Z,3.30
2018-05-29T14:53:19.785Z,3.80
2018-05-29T14:55:47.321Z,3.00
2018-05-29T14:58:14.873Z,3.53
2018-05-29T15:00:42.448Z,3.97
2018-05-29T15:03:10.018Z,3.70
2018-05-29T15:05:37.582Z,3.57
2018-05-29T15:08:05.406Z,3.80
2018-05-29T15:10:32.953Z,5.17
2018-05-29T15:13:00.489Z,3.37
2018-05-29T15:15:28.041Z,3.60
2018-05-29T15:17:55.592Z,3.97
2018-05-29T15:20:23.175Z,3.50
2018-05-29T15:22:50.731Z,3.43
2018-05-29T15:25:18.291Z,3.10
2018-05-29T15:27:45.892Z,3.57
2018-05-29T15:30:13.459Z,3.20
2018-05-29T15:32:41.018Z,3.20
2018-05-29T15:35:08.598Z,2.93
2018-05-29T15:37:36.145Z,3.60
2018-05-29T15:40:03.748Z,4.10
2018-05-29T15:42:31.339Z,4.27
2018-05-29T15:44:58.888Z,3.90
2018-05-29T15:47:26.463Z,5.13
2018-05-29T15:49:54.044Z,3.67
2018-05-29T15:52:21.600Z,3.70
2018-05-29T15:54:49.192Z,4.43
2018-05-29T15:57:16.780Z,4.50
2018-05-29T15:59:44.325Z,3.73
2018-05-29T16:02:11.877Z,3.70
2018-05-29T16:04:39.606Z,4.20
2018-05-29T16:07:07.158Z,4.37
2018-05-29T16:09:34.711Z,4.17
2018-05-29T16:12:02.597Z,3.70
2018-05-29T16:14:30.162Z,4.60
2018-05-29T16:16:57.730Z,4.63
2018-05-29T16:19:25.327Z,4.60
2018-05-29T16:21:52.890Z,3.90
2018-05-29T16:24:20.446Z,4.00
2018-05-29T16:26:48.041Z,4.43
2018-05-29T16:29:15.609Z,4.33
2018-05-29T16:31:43.171Z,3.93
2018-05-29T16:34:10.928Z,4.03
2018-05-29T16:36:38.499Z,3.90
2018-05-29T16:39:06.064Z,4.03
2018-05-29T16:41:33.669Z,3.00
2018-05-29T16:44:01.218Z,3.90
2018-05-29T16:46:28.770Z,4.00
2018-05-29T16:48:56.545Z,4.17
2018-05-29T16:51:24.093Z,3.67
2018-05-29T16:53:51.642Z,4.23
2018-05-29T16:56:19.338Z,3.30
2018-05-29T16:58:46.906Z,4.07
2018-05-29T17:01:14.470Z,4.03
2018-05-29T17:03:42.059Z,3.80
2018-05-29T17:06:09.627Z,4.43
2018-05-29T17:08:37.168Z,3.83
2018-05-29T17:11:04.862Z,3.90
2018-05-29T17:13:32.424Z,3.50
2018-05-29T17:15:59.979Z,3.93
2018-05-29T17:18:27.629Z,3.93
2018-05-29T17:20:55.187Z,3.90
2018-05-29T17:23:22.736Z,3.67
2018-05-29T17:25:50.498Z,3.40
2018-05-29T17:28:18.068Z,4.40
2018-05-29T17:30:45.620Z,3.60
2018-05-29T17:33:13.184Z,3.50
2018-05-29T17:35:40.736Z,3.53
2018-05-29T17:38:08.297Z,4.00
2018-05-29T17:40:36.021Z,3.63
2018-05-29T17:43:03.599Z,3.90
2018-05-29T17:45:31.152Z,4.27
2018-05-29T17:47:58.747Z,4.00
2018-05-29T17:50:26.304Z,4.57
2018-05-29T17:52:53.910Z,4.07
2018-05-29T17:55:21.677Z,4.13
2018-05-29T17:57:49.237Z,4.60
2018-05-29T18:00:16.776Z,3.83
2018-05-29T18:02:44.514Z,3.50
2018-05-29T18:05:12.075Z,4.70
2018-05-29T18:07:39.640Z,3.90
2018-05-29T18:10:07.214Z,3.47
2018-05-29T18:12:34.784Z,3.50
2018-05-29T18:15:02.331Z,3.50
2018-05-29T18:17:29.911Z,3.37
2018-05-29T18:19:57.464Z,3.70
2018-05-29T18:22:25.042Z,3.53
2018-05-29T18:24:52.755Z,3.70
2018-05-29T18:27:20.307Z,3.10
2018-05-29T18:29:47.854Z,4.07
2018-05-29T18:32:15.593Z,3.63
2018-05-29T18:34:43.154Z,3.70
2018-05-29T18:37:10.704Z,3.43
2018-05-29T18:39:38.468Z,3.30
2018-05-29T18:42:06.032Z,3.70
2018-05-29T18:44:33.700Z,3.70
2018-05-29T18:47:01.323Z,3.30
2018-05-29T18:49:28.914Z,4.00
2018-05-29T18:51:56.492Z,4.30
2018-05-29T18:54:24.112Z,3.57
2018-05-29T18:56:51.681Z,4.17
2018-05-29T18:59:19.258Z,3.40
2018-05-29T19:01:47.208Z,4.13
2018-05-29T19:04:14.740Z,3.17
2018-05-29T19:06:42.297Z,3.80
2018-05-29T19:09:10.279Z,4.00
2018-05-29T19:11:37.858Z,3.43
2018-05-29T19:14:05.401Z,3.53
2018-05-29T19:16:33.000Z,4.30
2018-05-29T19:19:00.559Z,3.80
2018-05-29T19:21:28.168Z,3.40
2018-05-29T19:23:56.119Z,3.37
2018-05-29T19:26:23.707Z,3.87
2018-05-29T19:28:51.295Z,3.47
2018-05-29T19:31:19.150Z,3.47
2018-05-29T19:33:46.745Z,3.50
2018-05-29T19:36:14.307Z,3.40
2018-05-29T19:38:42.049Z,3.53
2018-05-29T19:41:09.660Z,3.93
2018-05-29T19:43:37.234Z,3.80
2018-05-29T19:46:04.948Z,3.93
2018-05-29T19:48:32.639Z,3.13
2018-05-29T19:51:00.308Z,3.87
2018-05-29T19:53:27.911Z,3.80
2018-05-29T19:55:55.484Z,3.80
2018-05-29T19:58:23.071Z,3.87
2018-05-29T20:00:50.666Z,3.43
2018-05-29T20:03:18.225Z,3.57
2018-05-29T20:05:45.805Z,3.70
2018-05-29T20:08:13.780Z,4.07
2018-05-29T20:10:41.345Z,3.47
2018-05-29T20:13:08.888Z,3.47
2018-05-29T20:15:36.454Z,3.67
2018-05-29T20:18:04.010Z,3.43
2018-05-29T20:20:31.618Z,3.47
2018-05-29T20:22:59.174Z,3.47
2018-05-29T20:25:26.725Z,3.57
2018-05-29T20:27:54.681Z,4.00
2018-05-29T20:30:22.224Z,3.80
2018-05-29T20:32:49.779Z,3.60
2018-05-29T20:35:17.514Z,3.33
2018-05-29T20:37:45.057Z,3.73
2018-05-29T20:40:12.629Z,3.50
2018-05-29T20:42:40.378Z,3.13
2018-05-29T20:45:07.935Z,3.37
2018-05-29T20:47:35.533Z,3.70
2018-05-29T20:50:03.555Z,3.90
2018-05-29T20:52:31.141Z,3.57
2018-05-29T20:54:58.702Z,3.23
2018-05-29T20:57:26.294Z,3.43
2018-05-29T20:59:53.849Z,3.67
2018-05-29T21:02:21.398Z,3.33
2018-05-29T21:04:48.994Z,3.83
2018-05-29T21:07:16.555Z,3.70
2018-05-29T21:09:44.115Z,3.70
2018-05-29T21:12:11.694Z,3.80
2018-05-29T21:14:39.236Z,3.40
2018-05-29T21:17:06.784Z,4.00
2018-05-29T21:19:34.386Z,3.77
2018-05-29T21:22:01.924Z,3.57
2018-05-29T21:24:29.480Z,3.60
2018-05-29T21:26:57.382Z,3.90
2018-05-29T21:29:24.938Z,3.90
2018-05-29T21:31:52.511Z,3.40
2018-05-29T21:34:20.270Z,3.77
2018-05-29T21:36:47.844Z,3.50
2018-05-29T21:39:15.389Z,3.40
2018-05-29T21:41:43.113Z,3.77
2018-05-29T21:44:10.665Z,3.90
2018-05-29T21:46:38.213Z,3.53
2018-05-29T21:49:05.830Z,3.60
2018-05-29T21:51:34.064Z,4.20
2018-05-29T21:54:01.615Z,3.27
2018-05-29T21:56:29.312Z,3.50
2018-05-29T21:58:56.860Z,3.47
2018-05-29T22:01:24.424Z,3.53
2018-05-29T22:03:52.040Z,3.57
2018-05-29T22:06:19.586Z,3.37
2018-05-29T22:08:47.131Z,4.67
2018-05-29T22:11:14.704Z,3.63
2018-05-29T22:13:42.247Z,3.47
2018-05-29T22:16:09.784Z,3.30
2018-05-29T22:18:37.680Z,3.07
2018-05-29T22:21:05.270Z,3.47
2018-05-29T22:23:32.860Z,3.30
2018-05-29T22:26:00.582Z,3.90
2018-05-29T22:28:28.129Z,3.20
2018-05-29T22:30:55.658Z,3.50
2018-05-29T22:33:23.248Z,3.30
2018-05-29T22:35:50.776Z,3.00
2018-05-29T22:38:18.317Z,3.57
2018-05-29T22:40:46.006Z,3.50
2018-05-29T22:43:13.567Z,3.77
2018-05-29T22:45:41.110Z,3.23
2018-05-29T22:48:08.825Z,3.40
2018-05-29T22:50:36.365Z,3.40
2018-05-29T22:53:03.932Z,3.27
2018-05-29T22:55:31.513Z,3.27
2018-05-29T22:57:59.056Z,3.70
2018-05-29T23:00:26.588Z,3.67
2018-05-29T23:02:54.176Z,3.30
2018-05-29T23:05:21.717Z,3.50
2018-05-29T23:07:49.274Z,3.40
2018-05-29T23:10:17.117Z,3.97
2018-05-29T23:12:44.681Z,2.90
2018-05-29T23:15:12.219Z,3.93
2018-05-29T23:17:40.112Z,3.33
2018-05-29T23:20:07.910Z,3.47
2018-05-29T23:22:35.460Z,3.30
2018-05-29T23:25:03.209Z,3.17
2018-05-29T23:27:30.754Z,3.10
2018-05-29T23:29:58.294Z,3.80
2018-05-29T23:32:25.863Z,3.67
2018-05-29T23:34:53.414Z,3.43
2018-05-29T23:37:20.965Z,3.73
2018-05-29T23:39:48.560Z,3.47
2018-05-29T23:42:16.105Z,3.50
2018-05-29T23:44:43.685Z,3.20
2018-05-29T23:47:11.267Z,3.23
2018-05-29T23:49:38.799Z,3.50
2018-05-29T23:52:06.344Z,3.90
2018-05-29T23:54:33.901Z,3.50
2018-05-29T23:57:01.471Z,3.57
2018-05-29T23:59:29.018Z,4.00
